Time;durP1;ratioP1;P1;durP2;ratioP2;P2;SDS_P1;SDS_P2;PMS_P1;PMS_P2;Temp;Humidity;BMP_temperature;BMP_pressure;BME280_temperature;BME280_humidity;BME280_pressure;Samples;Min_cycle;Max_cycle;Signal;HPM_P1;HPM_P2
2021/12/13 00:00:40;;;;;;;;;;;23.00;50.80;;;;;;5116501;27;19978;-50
2021/12/13 00:03:33;;;;;;;;;;;23.00;50.80;;;;;;5118533;28;19923;-53
2021/12/13 00:06:05;;;;;;;;;;;22.90;50.80;;;;;;5113238;28;20348;-51
2021/12/13 00:08:33;;;;;;;;;;;22.90;50.80;;;;;;5117512;28;19924;-54
2021/12/13 00:11:07;;;;;;;;;;;22.90;50.80;;;;;;5117667;28;19973;-49
2021/12/13 00:13:45;;;;;;;;;;;22.90;51.40;;;;;;5116994;28;19927;-55
2021/12/13 00:16:13;;;;;;;;;;;22.90;50.80;;;;;;5117360;28;19969;-53
2021/12/13 00:18:46;;;;;;;;;;;22.90;50.80;;;;;;5116982;28;19969;-52
2021/12/13 00:21:21;;;;;;;;;;;22.90;50.80;;;;;;5117584;28;20445;-50
2021/12/13 00:23:54;;;;;;;;;;;22.90;50.80;;;;;;5117076;28;19969;-56
2021/12/13 00:26:24;;;;;;;;;;;22.90;50.80;;;;;;5117151;28;19931;-53
2021/12/13 00:28:51;;;;;;;;;;;23.00;50.90;;;;;;5116362;27;19924;-51
2021/12/13 00:31:24;;;;;;;;;;;22.90;50.80;;;;;;5117874;28;19923;-52
2021/12/13 00:34:09;;;;;;;;;;;22.90;50.80;;;;;;5117264;28;19924;-49
2021/12/13 00:36:44;;;;;;;;;;;22.90;50.80;;;;;;5117186;28;19928;-50
2021/12/13 00:39:14;;;;;;;;;;;22.90;50.80;;;;;;5117185;28;20333;-51
2021/12/13 00:41:42;;;;;;;;;;;22.90;50.80;;;;;;5098804;28;20443;-53
2021/12/13 00:44:13;;;;;;;;;;;22.90;50.80;;;;;;5115367;27;19928;-54
2021/12/13 00:46:42;;;;;;;;;;;22.90;50.80;;;;;;5116772;28;19977;-50
2021/12/13 00:49:11;;;;;;;;;;;22.90;50.80;;;;;;5116592;28;19928;-49
2021/12/13 00:51:46;;;;;;;;;;;22.90;50.80;;;;;;5116598;28;19932;-54
2021/12/13 00:54:21;;;;;;;;;;;22.90;50.80;;;;;;5116468;28;19924;-48
2021/12/13 00:56:48;;;;;;;;;;;22.90;50.80;;;;;;5116578;28;20379;-54
2021/12/13 00:59:23;;;;;;;;;;;22.90;50.90;;;;;;5115261;27;19968;-54
2021/12/13 01:02:25;;;;;;;;;;;22.90;50.90;;;;;;5116771;28;19931;-52
2021/12/13 01:04:52;;;;;;;;;;;22.90;50.90;;;;;;5014238;28;19960;-55
2021/12/13 01:07:38;;;;;;;;;;;22.90;51.50;;;;;;5014736;28;19926;-47
2021/12/13 01:10:23;;;;;;;;;;;22.90;51.00;;;;;;5013850;28;19926;-51
2021/12/13 01:12:50;;;;;;;;;;;22.90;50.90;;;;;;5013876;28;20429;-50
2021/12/13 01:15:30;;;;;;;;;;;22.80;50.80;;;;;;5021380;28;19929;-50
2021/12/13 01:18:19;;;;;;;;;;;22.80;50.90;;;;;;5033840;28;20503;-50
2021/12/13 01:21:12;;;;;;;;;;;22.80;50.90;;;;;;5033682;28;19925;-54
2021/12/13 01:23:47;;;;;;;;;;;22.80;50.90;;;;;;5033323;28;19991;-51
2021/12/13 01:28:52;;;;;;;;;;;22.80;50.90;;;;;;5033397;28;20372;-51
2021/12/13 01:31:21;;;;;;;;;;;22.80;50.90;;;;;;5032006;28;19929;-51
2021/12/13 01:33:50;;;;;;;;;;;22.80;50.90;;;;;;5033345;28;19925;-49
2021/12/13 01:36:22;;;;;;;;;;;22.80;50.90;;;;;;5033179;28;20369;-48
2021/12/13 01:38:57;;;;;;;;;;;22.80;50.90;;;;;;5033188;28;20392;-52
2021/12/13 01:41:30;;;;;;;;;;;22.80;50.90;;;;;;5106638;28;19954;-49
2021/12/13 01:43:59;;;;;;;;;;;22.80;50.90;;;;;;5115871;28;19924;-49
2021/12/13 01:46:26;;;;;;;;;;;22.80;50.90;;;;;;5114605;28;19924;-53
2021/12/13 01:48:54;;;;;;;;;;;22.80;50.90;;;;;;5116090;28;19981;-47
2021/12/13 01:51:24;;;;;;;;;;;22.80;51.00;;;;;;5115388;28;19924;-53
2021/12/13 01:53:54;;;;;;;;;;;22.80;51.00;;;;;;5115566;28;19952;-53
2021/12/13 01:56:48;;;;;;;;;;;22.80;51.00;;;;;;5114629;28;19923;-57
2021/12/13 02:02:34;;;;;;;;;;;22.80;51.00;;;;;;5114511;27;19924;-57
2021/12/13 02:05:04;;;;;;;;;;;22.80;51.00;;;;;;5013124;28;20370;-52
2021/12/13 02:07:37;;;;;;;;;;;22.80;51.00;;;;;;5012885;28;19925;-51
2021/12/13 02:10:08;;;;;;;;;;;22.80;51.00;;;;;;5012999;28;19929;-50
2021/12/13 02:12:39;;;;;;;;;;;22.80;51.00;;;;;;5012832;28;19933;-50
2021/12/13 02:17:52;;;;;;;;;;;22.80;51.00;;;;;;5032463;28;19929;-55
2021/12/13 02:20:26;;;;;;;;;;;22.80;51.00;;;;;;5032109;28;19925;-49
2021/12/13 02:22:55;;;;;;;;;;;22.80;51.00;;;;;;5015875;28;20376;-48
2021/12/13 02:25:31;;;;;;;;;;;22.80;51.00;;;;;;5032284;28;19979;-51
2021/12/13 02:28:12;;;;;;;;;;;22.80;51.00;;;;;;5032525;28;19925;-46
2021/12/13 02:30:48;;;;;;;;;;;22.80;51.00;;;;;;5030458;28;20316;-56
2021/12/13 02:33:20;;;;;;;;;;;22.70;51.00;;;;;;5032169;28;19948;-52
2021/12/13 02:35:51;;;;;;;;;;;22.70;51.00;;;;;;5032126;28;19925;-56
2021/12/13 02:38:18;;;;;;;;;;;22.70;51.00;;;;;;5032105;28;19925;-55
2021/12/13 02:40:46;;;;;;;;;;;22.80;51.20;;;;;;5077086;28;19924;-52
2021/12/13 02:43:17;;;;;;;;;;;22.70;51.10;;;;;;5114529;28;19924;-54
2021/12/13 02:45:47;;;;;;;;;;;22.70;51.10;;;;;;5113542;28;19924;-52
2021/12/13 02:48:24;;;;;;;;;;;22.70;51.10;;;;;;5096915;28;19932;-46
2021/12/13 02:51:00;;;;;;;;;;;22.70;51.10;;;;;;5114397;28;19923;-55
2021/12/13 02:53:38;;;;;;;;;;;22.70;51.10;;;;;;5114558;28;20336;-54
2021/12/13 02:56:05;;;;;;;;;;;22.70;51.10;;;;;;5114412;28;19968;-54
2021/12/13 02:58:33;;;;;;;;;;;22.70;51.70;;;;;;5096324;28;19976;-55
2021/12/13 03:01:10;;;;;;;;;;;22.70;51.10;;;;;;5113382;28;19928;-49
2021/12/13 03:03:41;;;;;;;;;;;22.70;51.20;;;;;;5114616;28;19924;-55
2021/12/13 03:06:09;;;;;;;;;;;22.70;51.20;;;;;;5114512;28;19927;-53
2021/12/13 03:08:58;;;;;;;;;;;22.70;51.10;;;;;;5114169;28;19928;-53
2021/12/13 03:11:30;;;;;;;;;;;22.70;51.10;;;;;;5114203;28;19923;-52
2021/12/13 03:14:03;;;;;;;;;;;22.70;51.20;;;;;;5114771;28;19965;-52
2021/12/13 03:16:39;;;;;;;;;;;22.70;51.20;;;;;;5112843;28;20409;-51
2021/12/13 03:19:17;;;;;;;;;;;22.70;51.10;;;;;;5113853;28;19924;-51
2021/12/13 03:22:07;;;;;;;;;;;22.70;51.10;;;;;;5114074;28;19931;-51
2021/12/13 03:24:34;;;;;;;;;;;22.70;51.10;;;;;;5114341;28;19992;-53
2021/12/13 03:27:01;;;;;;;;;;;22.70;51.20;;;;;;5113997;28;20383;-55
2021/12/13 03:29:48;;;;;;;;;;;22.70;51.20;;;;;;5114289;28;19924;-53
2021/12/13 03:32:16;;;;;;;;;;;22.70;51.20;;;;;;5095684;28;19931;-56
2021/12/13 03:34:56;;;;;;;;;;;22.70;51.20;;;;;;5113948;28;20413;-52
2021/12/13 03:37:24;;;;;;;;;;;22.70;51.20;;;;;;5114256;28;19923;-52
2021/12/13 03:39:55;;;;;;;;;;;22.70;51.20;;;;;;5114797;28;20390;-56
2021/12/13 03:42:43;;;;;;;;;;;22.70;51.20;;;;;;5114191;28;20329;-51
2021/12/13 03:45:14;;;;;;;;;;;22.70;51.20;;;;;;5113900;28;19927;-55
2021/12/13 03:47:44;;;;;;;;;;;22.70;51.20;;;;;;5112744;28;19923;-56
2021/12/13 03:50:14;;;;;;;;;;;22.70;51.20;;;;;;5113911;28;19989;-55
2021/12/13 03:52:44;;;;;;;;;;;22.70;51.20;;;;;;5113606;28;19924;-52
2021/12/13 03:55:12;;;;;;;;;;;22.70;51.20;;;;;;5113958;28;19931;-51
2021/12/13 03:57:43;;;;;;;;;;;22.70;51.20;;;;;;5113776;28;19923;-52
2021/12/13 04:00:12;;;;;;;;;;;22.70;51.20;;;;;;5113757;28;19934;-56
2021/12/13 04:02:40;;;;;;;;;;;22.70;51.20;;;;;;5112509;28;19923;-50
2021/12/13 04:05:09;;;;;;;;;;;22.70;51.20;;;;;;5113996;28;19992;-47
2021/12/13 04:07:41;;;;;;;;;;;22.70;51.20;;;;;;5114507;28;19936;-47
2021/12/13 04:10:14;;;;;;;;;;;22.70;51.20;;;;;;5113611;28;20378;-48
2021/12/13 04:12:47;;;;;;;;;;;22.70;51.20;;;;;;5113689;28;19931;-51
2021/12/13 04:15:25;;;;;;;;;;;22.70;51.20;;;;;;5114228;28;20344;-49
2021/12/13 04:18:13;;;;;;;;;;;22.60;51.20;;;;;;5112431;28;19924;-52
2021/12/13 04:20:44;;;;;;;;;;;22.70;51.20;;;;;;5116087;28;19928;-50
2021/12/13 04:23:16;;;;;;;;;;;22.60;51.20;;;;;;5117187;28;19969;-52
2021/12/13 04:25:44;;;;;;;;;;;22.60;51.20;;;;;;5117181;28;19973;-45
2021/12/13 04:28:15;;;;;;;;;;;22.60;51.20;;;;;;5118279;28;19924;-55
2021/12/13 04:30:46;;;;;;;;;;;22.60;51.20;;;;;;5117054;28;19924;-47
2021/12/13 04:33:22;;;;;;;;;;;22.60;51.20;;;;;;5116312;28;19923;-48
2021/12/13 04:35:51;;;;;;;;;;;22.60;51.20;;;;;;5116968;28;19931;-46
2021/12/13 04:38:21;;;;;;;;;;;22.70;51.30;;;;;;5099760;28;20363;-50
2021/12/13 04:40:51;;;;;;;;;;;22.60;51.20;;;;;;5117224;28;19923;-53
2021/12/13 04:43:20;;;;;;;;;;;22.60;51.20;;;;;;5099066;28;19923;-54
2021/12/13 04:45:58;;;;;;;;;;;22.70;51.30;;;;;;5117106;28;20299;-54
2021/12/13 04:48:28;;;;;;;;;;;22.60;51.20;;;;;;5115462;28;19991;-53
2021/12/13 04:50:58;;;;;;;;;;;22.60;51.20;;;;;;5116626;28;19969;-52
2021/12/13 04:53:30;;;;;;;;;;;22.60;51.20;;;;;;5116467;28;19969;-49
2021/12/13 04:55:59;;;;;;;;;;;22.60;51.20;;;;;;5116913;28;19969;-52
2021/12/13 04:58:28;;;;;;;;;;;22.60;51.30;;;;;;5117428;28;19924;-57
2021/12/13 05:00:56;;;;;;;;;;;22.60;51.30;;;;;;5116509;28;19923;-56
2021/12/13 05:03:26;;;;;;;;;;;22.60;51.30;;;;;;5115460;28;20018;-48
2021/12/13 05:05:53;;;;;;;;;;;22.60;51.20;;;;;;5116388;28;19924;-46
2021/12/13 05:08:21;;;;;;;;;;;22.60;51.90;;;;;;5116664;28;19932;-53
2021/12/13 05:10:49;;;;;;;;;;;22.60;51.30;;;;;;5116531;28;19924;-49
2021/12/13 05:13:23;;;;;;;;;;;22.60;51.30;;;;;;5116277;28;19924;-52
2021/12/13 05:16:01;;;;;;;;;;;22.60;51.30;;;;;;5116273;28;19993;-51
2021/12/13 05:18:30;;;;;;;;;;;22.60;51.30;;;;;;5114664;27;19931;-51
2021/12/13 05:21:02;;;;;;;;;;;22.60;51.30;;;;;;5116473;28;20336;-55
2021/12/13 05:23:29;;;;;;;;;;;22.60;51.30;;;;;;5098158;28;19924;-51
2021/12/13 05:25:58;;;;;;;;;;;22.60;51.30;;;;;;5116053;28;20398;-51
2021/12/13 05:28:29;;;;;;;;;;;22.60;51.30;;;;;;5116221;28;19950;-46
2021/12/13 05:31:00;;;;;;;;;;;22.60;51.30;;;;;;5115143;28;20375;-55
2021/12/13 05:33:30;;;;;;;;;;;22.60;51.30;;;;;;5114569;28;19924;-47
2021/12/13 05:35:59;;;;;;;;;;;22.60;51.30;;;;;;5115830;28;19928;-49
2021/12/13 05:38:29;;;;;;;;;;;22.60;51.30;;;;;;5115783;28;19931;-55
2021/12/13 05:40:57;;;;;;;;;;;22.60;51.30;;;;;;5116041;28;20334;-46
2021/12/13 05:43:27;;;;;;;;;;;22.60;51.30;;;;;;5116239;28;20306;-55
2021/12/13 05:45:57;;;;;;;;;;;22.60;51.30;;;;;;5115952;28;19928;-56
2021/12/13 05:48:36;;;;;;;;;;;22.60;51.30;;;;;;5114259;28;19923;-54
2021/12/13 05:51:06;;;;;;;;;;;22.60;51.20;;;;;;5115484;28;19928;-53
2021/12/13 05:53:38;;;;;;;;;;;22.60;51.20;;;;;;5115905;28;19924;-53
2021/12/13 05:56:07;;;;;;;;;;;22.60;51.20;;;;;;5115634;28;19976;-47
2021/12/13 05:58:37;;;;;;;;;;;22.60;51.20;;;;;;5115322;28;20379;-48
2021/12/13 06:01:12;;;;;;;;;;;22.60;51.20;;;;;;5115621;28;20018;-49
2021/12/13 06:03:42;;;;;;;;;;;22.60;51.20;;;;;;5114069;28;19924;-51
2021/12/13 06:06:19;;;;;;;;;;;22.60;51.20;;;;;;5115249;28;19923;-46
2021/12/13 06:08:48;;;;;;;;;;;22.60;51.20;;;;;;5115195;28;19928;-46
2021/12/13 06:11:18;;;;;;;;;;;22.60;51.20;;;;;;5116214;28;19985;-52
2021/12/13 06:13:50;;;;;;;;;;;22.60;51.20;;;;;;5115388;28;19923;-53
2021/12/13 06:16:23;;;;;;;;;;;22.60;51.20;;;;;;5114945;28;19927;-49
2021/12/13 06:18:57;;;;;;;;;;;22.60;51.20;;;;;;5113519;27;20406;-55
2021/12/13 06:21:30;;;;;;;;;;;22.60;51.20;;;;;;5114918;28;19924;-54
2021/12/13 06:23:58;;;;;;;;;;;22.60;51.10;;;;;;5114749;28;20366;-49
2021/12/13 06:26:26;;;;;;;;;;;22.60;51.10;;;;;;5114832;28;19969;-52
2021/12/13 06:28:55;;;;;;;;;;;22.60;51.10;;;;;;5114757;28;19923;-48
2021/12/13 06:31:22;;;;;;;;;;;22.60;51.10;;;;;;5115663;28;19930;-55
2021/12/13 06:33:57;;;;;;;;;;;22.60;51.10;;;;;;5113933;28;20375;-51
2021/12/13 06:36:29;;;;;;;;;;;22.60;51.10;;;;;;5115838;28;19931;-45
2021/12/13 06:39:00;;;;;;;;;;;22.70;51.20;;;;;;5115800;28;19953;-48
2021/12/13 06:41:27;;;;;;;;;;;22.60;51.00;;;;;;5096501;28;19931;-51
2021/12/13 06:44:13;;;;;;;;;;;22.70;51.10;;;;;;5114084;28;19924;-53
2021/12/13 06:46:46;;;;;;;;;;;22.70;51.10;;;;;;5114385;28;19924;-51
2021/12/13 06:49:16;;;;;;;;;;;22.60;51.00;;;;;;5113225;28;19924;-54
2021/12/13 06:51:52;;;;;;;;;;;22.70;51.10;;;;;;5114268;28;19977;-54
2021/12/13 06:54:19;;;;;;;;;;;22.70;51.10;;;;;;5114489;28;19924;-54
2021/12/13 06:56:54;;;;;;;;;;;22.70;51.10;;;;;;5114651;28;19924;-53
2021/12/13 06:59:22;;;;;;;;;;;22.70;51.10;;;;;;5114663;28;19996;-58
2021/12/13 07:02:00;;;;;;;;;;;22.70;51.00;;;;;;5114222;28;19931;-48
2021/12/13 07:04:37;;;;;;;;;;;22.70;51.00;;;;;;5107839;27;19927;-52
2021/12/13 07:07:11;;;;;;;;;;;22.70;51.00;;;;;;5135128;27;19923;-55
2021/12/13 07:09:39;;;;;;;;;;;22.70;51.00;;;;;;5134965;27;19923;-52
2021/12/13 07:12:14;;;;;;;;;;;22.70;51.00;;;;;;5134982;27;19927;-46
2021/12/13 07:14:42;;;;;;;;;;;22.70;51.00;;;;;;5134540;27;19935;-47
2021/12/13 07:17:19;;;;;;;;;;;22.70;50.90;;;;;;5134613;28;19923;-49
2021/12/13 07:19:49;;;;;;;;;;;22.70;50.90;;;;;;5118332;28;19931;-47
2021/12/13 07:22:20;;;;;;;;;;;22.70;50.90;;;;;;5113831;28;19969;-48
2021/12/13 07:24:52;;;;;;;;;;;22.70;50.80;;;;;;5114220;28;19949;-47
2021/12/13 07:27:21;;;;;;;;;;;22.80;50.90;;;;;;5114348;28;19931;-46
2021/12/13 07:29:50;;;;;;;;;;;22.80;50.90;;;;;;5113817;28;19928;-46
2021/12/13 07:32:20;;;;;;;;;;;22.80;50.90;;;;;;5114153;28;19927;-49
2021/12/13 07:35:00;;;;;;;;;;;22.80;50.90;;;;;;5112904;28;19924;-51
2021/12/13 07:37:34;;;;;;;;;;;22.80;50.90;;;;;;5113788;28;19928;-50
2021/12/13 07:40:19;;;;;;;;;;;22.80;50.80;;;;;;5113878;28;19936;-51
2021/12/13 07:43:08;;;;;;;;;;;22.80;50.80;;;;;;5113852;28;20011;-50
2021/12/13 07:45:39;;;;;;;;;;;22.80;50.80;;;;;;5113591;28;19928;-55
2021/12/13 07:48:09;;;;;;;;;;;22.80;50.80;;;;;;5113757;28;19924;-53
2021/12/13 07:50:37;;;;;;;;;;;22.80;50.70;;;;;;5113069;28;19924;-47
2021/12/13 07:53:07;;;;;;;;;;;22.80;50.70;;;;;;5113508;28;19925;-54
2021/12/13 07:55:39;;;;;;;;;;;22.80;50.70;;;;;;5098188;28;19923;-53
2021/12/13 07:58:06;;;;;;;;;;;22.80;50.60;;;;;;5118572;28;19924;-50
2021/12/13 08:00:35;;;;;;;;;;;22.90;50.70;;;;;;5117917;28;19924;-57
2021/12/13 08:03:05;;;;;;;;;;;22.90;50.70;;;;;;5117645;28;20011;-52
2021/12/13 08:05:38;;;;;;;;;;;22.90;50.70;;;;;;5116486;27;19930;-52
2021/12/13 08:08:07;;;;;;;;;;;22.90;50.70;;;;;;5117441;28;19931;-53
2021/12/13 08:10:38;;;;;;;;;;;22.90;50.70;;;;;;5117367;28;19923;-52
2021/12/13 08:13:13;;;;;;;;;;;22.90;50.70;;;;;;5118571;28;20270;-51
2021/12/13 08:15:41;;;;;;;;;;;22.90;50.60;;;;;;5117846;28;20036;-50
2021/12/13 08:18:17;;;;;;;;;;;22.90;50.60;;;;;;5116985;28;19930;-52
2021/12/13 08:20:46;;;;;;;;;;;22.90;50.60;;;;;;5116176;27;19931;-53
2021/12/13 08:23:16;;;;;;;;;;;22.90;50.60;;;;;;5099438;28;19923;-56
2021/12/13 08:25:45;;;;;;;;;;;22.90;50.60;;;;;;5118356;28;19923;-54
2021/12/13 08:28:15;;;;;;;;;;;23.00;50.70;;;;;;5099109;28;19931;-56
2021/12/13 08:30:50;;;;;;;;;;;22.90;50.60;;;;;;5117356;28;19946;-50
2021/12/13 08:33:20;;;;;;;;;;;23.00;50.60;;;;;;5117288;28;19923;-53
2021/12/13 08:35:49;;;;;;;;;;;23.00;50.60;;;;;;5115606;28;19924;-51
2021/12/13 08:38:25;;;;;;;;;;;23.00;50.60;;;;;;5116904;28;19924;-53
2021/12/13 08:40:52;;;;;;;;;;;23.00;50.60;;;;;;5116817;28;19935;-52
2021/12/13 08:43:51;;;;;;;;;;;23.00;50.60;;;;;;5098786;28;19924;-48
2021/12/13 08:46:30;;;;;;;;;;;23.00;50.60;;;;;;5014534;28;19969;-51
2021/12/13 08:48:58;;;;;;;;;;;23.00;50.60;;;;;;5014017;28;19926;-50
2021/12/13 08:51:27;;;;;;;;;;;23.00;50.60;;;;;;5033443;28;19999;-49
2021/12/13 08:54:00;;;;;;;;;;;23.00;50.60;;;;;;5033872;28;20300;-48
2021/12/13 08:56:27;;;;;;;;;;;23.00;50.50;;;;;;5034206;28;20347;-52
2021/12/13 08:58:59;;;;;;;;;;;23.00;50.50;;;;;;5033887;28;19935;-54
2021/12/13 09:01:28;;;;;;;;;;;23.00;50.50;;;;;;5034140;28;20015;-49
2021/12/13 09:03:55;;;;;;;;;;;23.00;50.50;;;;;;5034108;28;20011;-54
2021/12/13 09:06:31;;;;;;;;;;;23.00;50.50;;;;;;5032219;28;19929;-55
2021/12/13 09:09:04;;;;;;;;;;;23.00;50.50;;;;;;5017504;28;19925;-55
2021/12/13 09:11:32;;;;;;;;;;;23.00;50.50;;;;;;5033733;28;20400;-50
2021/12/13 09:14:10;;;;;;;;;;;23.00;50.50;;;;;;5033994;28;19925;-51
2021/12/13 09:16:44;;;;;;;;;;;23.00;50.50;;;;;;5033881;28;19925;-56
2021/12/13 09:19:20;;;;;;;;;;;23.00;50.50;;;;;;5033388;28;19929;-49
2021/12/13 09:21:59;;;;;;;;;;;23.00;50.50;;;;;;5069156;28;19969;-49
2021/12/13 09:24:30;;;;;;;;;;;23.00;50.50;;;;;;5115919;28;19931;-50
2021/12/13 09:27:12;;;;;;;;;;;23.10;50.60;;;;;;5116044;28;19924;-53
2021/12/13 09:29:47;;;;;;;;;;;23.10;50.60;;;;;;5116032;28;19924;-54
2021/12/13 09:32:15;;;;;;;;;;;23.00;50.50;;;;;;5116157;28;19923;-49
2021/12/13 09:34:44;;;;;;;;;;;23.10;50.60;;;;;;5115451;27;19928;-47
2021/12/13 09:37:12;;;;;;;;;;;23.10;50.60;;;;;;5137535;27;20330;-51
2021/12/13 09:39:41;;;;;;;;;;;23.10;50.50;;;;;;5136298;27;19927;-57
2021/12/13 09:42:10;;;;;;;;;;;23.10;50.50;;;;;;5136225;27;19928;-50
2021/12/13 09:44:44;;;;;;;;;;;23.10;50.50;;;;;;5136426;27;19938;-54
2021/12/13 09:47:23;;;;;;;;;;;23.20;50.50;;;;;;5136030;27;19923;-51
2021/12/13 09:49:56;;;;;;;;;;;23.10;50.40;;;;;;5132619;27;19923;-51
2021/12/13 09:52:37;;;;;;;;;;;23.10;50.40;;;;;;5115297;28;19928;-48
2021/12/13 09:55:04;;;;;;;;;;;23.10;50.40;;;;;;5115685;28;20294;-48
2021/12/13 09:57:36;;;;;;;;;;;23.20;50.40;;;;;;5115378;28;19924;-51
2021/12/13 10:00:10;;;;;;;;;;;23.20;50.40;;;;;;5115619;28;19927;-52
2021/12/13 10:02:40;;;;;;;;;;;23.20;50.40;;;;;;5115540;28;19976;-48
2021/12/13 10:05:10;;;;;;;;;;;23.20;50.40;;;;;;5114118;27;19982;-57
2021/12/13 10:07:38;;;;;;;;;;;23.20;50.30;;;;;;5115152;28;19931;-54
2021/12/13 10:10:07;;;;;;;;;;;23.20;50.30;;;;;;5116289;28;19947;-56
2021/12/13 10:12:39;;;;;;;;;;;23.20;50.30;;;;;;5115644;28;19923;-51
2021/12/13 10:15:06;;;;;;;;;;;23.30;50.30;;;;;;5115297;28;19924;-53
2021/12/13 10:17:35;;;;;;;;;;;23.30;50.30;;;;;;5114259;28;19930;-56
2021/12/13 10:20:08;;;;;;;;;;;23.30;50.30;;;;;;5113858;28;19931;-56
2021/12/13 10:22:35;;;;;;;;;;;23.30;50.30;;;;;;5115236;28;20340;-52
2021/12/13 10:25:06;;;;;;;;;;;23.30;50.20;;;;;;5115088;28;19927;-53
2021/12/13 10:27:33;;;;;;;;;;;23.30;50.20;;;;;;5115354;28;19927;-47
2021/12/13 10:30:04;;;;;;;;;;;23.30;50.20;;;;;;5114723;28;19970;-46
2021/12/13 10:32:33;;;;;;;;;;;23.30;50.20;;;;;;5114694;28;19924;-52
2021/12/13 10:35:04;;;;;;;;;;;23.30;50.20;;;;;;5114923;28;19931;-54
2021/12/13 10:37:33;;;;;;;;;;;23.30;50.10;;;;;;5114121;28;20346;-52
2021/12/13 10:40:26;;;;;;;;;;;23.30;50.10;;;;;;5114894;28;20286;-49
2021/12/13 10:42:59;;;;;;;;;;;23.30;50.70;;;;;;5110242;28;19931;-52
2021/12/13 10:45:28;;;;;;;;;;;23.40;50.20;;;;;;5096489;28;19927;-50
2021/12/13 10:47:58;;;;;;;;;;;23.30;50.10;;;;;;5114319;28;20337;-50
2021/12/13 10:50:54;;;;;;;;;;;23.40;50.10;;;;;;5113731;27;19937;-53
2021/12/13 10:53:23;;;;;;;;;;;23.40;50.10;;;;;;5015400;28;19931;-52
2021/12/13 10:56:01;;;;;;;;;;;23.40;50.10;;;;;;5031847;28;19962;-51
2021/12/13 10:58:31;;;;;;;;;;;23.40;50.10;;;;;;5032265;28;19925;-49
2021/12/13 11:01:06;;;;;;;;;;;23.40;50.10;;;;;;5031757;28;19925;-48
2021/12/13 11:03:34;;;;;;;;;;;23.40;50.10;;;;;;5031922;28;19975;-55
2021/12/13 11:06:01;;;;;;;;;;;23.40;50.10;;;;;;5030187;28;19932;-47
2021/12/13 11:08:28;;;;;;;;;;;23.40;50.70;;;;;;5031559;28;19925;-55
2021/12/13 11:11:05;;;;;;;;;;;23.40;50.20;;;;;;5031772;28;19925;-47
2021/12/13 11:13:35;;;;;;;;;;;23.50;50.30;;;;;;5031606;28;19932;-55
2021/12/13 11:16:14;;;;;;;;;;;23.50;50.30;;;;;;5031722;28;19955;-53
2021/12/13 11:18:42;;;;;;;;;;;23.40;50.90;;;;;;5031220;28;19929;-53
2021/12/13 11:21:12;;;;;;;;;;;23.50;50.40;;;;;;5026524;28;19926;-51
2021/12/13 11:23:40;;;;;;;;;;;23.50;50.40;;;;;;5011723;28;19927;-52
2021/12/13 11:26:09;;;;;;;;;;;23.50;50.40;;;;;;5011849;28;19970;-50
2021/12/13 11:28:36;;;;;;;;;;;23.50;50.40;;;;;;5012603;28;19972;-48
2021/12/13 11:31:12;;;;;;;;;;;23.50;50.40;;;;;;5117435;28;19935;-49
2021/12/13 11:34:03;;;;;;;;;;;23.50;50.40;;;;;;5118670;28;19969;-47
2021/12/13 11:37:06;;;;;;;;;;;23.50;50.40;;;;;;5116991;28;19931;-49
2021/12/13 11:39:48;;;;;;;;;;;23.50;50.40;;;;;;5015594;28;19929;-54
2021/12/13 11:42:21;;;;;;;;;;;23.50;50.40;;;;;;5016674;28;19925;-50
2021/12/13 11:44:51;;;;;;;;;;;23.50;50.40;;;;;;5015423;28;19925;-48
2021/12/13 11:47:36;;;;;;;;;;;23.50;50.30;;;;;;5015301;28;20297;-54
2021/12/13 11:50:22;;;;;;;;;;;23.50;50.30;;;;;;5015515;28;19936;-55
2021/12/13 11:52:49;;;;;;;;;;;23.50;50.40;;;;;;5029272;28;19925;-55
2021/12/13 11:55:35;;;;;;;;;;;23.60;50.50;;;;;;5035630;28;19925;-49
2021/12/13 11:58:38;;;;;;;;;;;23.60;50.50;;;;;;5035142;28;19951;-51
2021/12/13 12:01:24;;;;;;;;;;;23.50;50.40;;;;;;4996643;28;20350;-51
2021/12/13 12:04:02;;;;;;;;;;;23.60;50.50;;;;;;4995951;28;19934;-54
2021/12/13 12:06:47;;;;;;;;;;;23.60;50.50;;;;;;4994602;28;19968;-54
2021/12/13 12:09:20;;;;;;;;;;;23.60;50.50;;;;;;4979540;28;19925;-54
2021/12/13 12:12:06;;;;;;;;;;;23.60;50.50;;;;;;4995486;28;20029;-54
2021/12/13 12:14:34;;;;;;;;;;;23.60;50.60;;;;;;5066477;28;20054;-48
2021/12/13 12:17:02;;;;;;;;;;;23.60;50.60;;;;;;5075422;28;19928;-49
2021/12/13 12:19:32;;;;;;;;;;;23.60;50.70;;;;;;5074463;28;19925;-48
2021/12/13 12:22:13;;;;;;;;;;;23.60;50.70;;;;;;5052849;28;19932;-56
2021/12/13 12:24:42;;;;;;;;;;;23.60;50.80;;;;;;5054599;28;19931;-48
2021/12/13 12:27:14;;;;;;;;;;;23.60;50.80;;;;;;5054505;28;19975;-48
2021/12/13 12:29:44;;;;;;;;;;;23.60;50.80;;;;;;5054710;28;19929;-47
2021/12/13 12:32:18;;;;;;;;;;;23.60;50.90;;;;;;5054409;28;19928;-49
2021/12/13 12:34:54;;;;;;;;;;;23.60;50.90;;;;;;5076304;28;19931;-54
2021/12/13 12:37:24;;;;;;;;;;;23.60;50.90;;;;;;5115904;27;19924;-49
2021/12/13 12:40:07;;;;;;;;;;;23.60;50.90;;;;;;5117253;28;19928;-47
2021/12/13 12:42:43;;;;;;;;;;;23.60;51.00;;;;;;5116722;28;19923;-52
2021/12/13 12:45:13;;;;;;;;;;;23.60;51.00;;;;;;5117420;28;19924;-50
2021/12/13 12:47:46;;;;;;;;;;;23.60;51.10;;;;;;5116640;28;20018;-52
2021/12/13 12:50:18;;;;;;;;;;;23.60;51.10;;;;;;5116729;28;19924;-52
2021/12/13 12:52:48;;;;;;;;;;;23.60;51.10;;;;;;5115733;28;19975;-51
2021/12/13 12:55:17;;;;;;;;;;;23.60;51.20;;;;;;5098950;28;20275;-51
2021/12/13 12:57:44;;;;;;;;;;;23.60;51.20;;;;;;5116893;28;20341;-52
2021/12/13 13:00:12;;;;;;;;;;;23.60;51.30;;;;;;5116544;28;20398;-53
2021/12/13 13:02:50;;;;;;;;;;;23.60;51.90;;;;;;5116827;28;19923;-51
2021/12/13 13:05:19;;;;;;;;;;;23.60;51.30;;;;;;5116420;28;19924;-47
2021/12/13 13:07:49;;;;;;;;;;;23.60;51.40;;;;;;5115209;27;19931;-54
2021/12/13 13:13:15;;;;;;;;;;;23.60;51.50;;;;;;5033783;28;20296;-46
2021/12/13 13:15:44;;;;;;;;;;;23.60;51.50;;;;;;5033667;28;19931;-46
2021/12/13 13:18:13;;;;;;;;;;;23.60;51.50;;;;;;5033448;28;19960;-48
2021/12/13 13:20:42;;;;;;;;;;;23.60;51.50;;;;;;5033660;28;19932;-52
2021/12/13 13:23:10;;;;;;;;;;;23.60;51.50;;;;;;5026176;28;20339;-46
2021/12/13 13:25:45;;;;;;;;;;;23.60;51.50;;;;;;5036935;28;20340;-47
2021/12/13 13:28:15;;;;;;;;;;;23.60;51.50;;;;;;5053368;28;19925;-47
2021/12/13 13:30:45;;;;;;;;;;;23.60;51.50;;;;;;5053494;28;19929;-52
2021/12/13 13:33:12;;;;;;;;;;;23.60;51.50;;;;;;5053293;28;19925;-53
2021/12/13 13:35:39;;;;;;;;;;;23.60;51.50;;;;;;5053248;28;19925;-51
2021/12/13 13:38:14;;;;;;;;;;;23.60;51.50;;;;;;5051656;28;19925;-55
2021/12/13 13:40:42;;;;;;;;;;;23.70;51.60;;;;;;5053236;28;19925;-54
2021/12/13 13:43:10;;;;;;;;;;;23.60;51.50;;;;;;5037008;28;19925;-52
2021/12/13 13:45:42;;;;;;;;;;;23.60;51.50;;;;;;5036564;28;19940;-51
2021/12/13 13:48:13;;;;;;;;;;;23.60;51.50;;;;;;5053548;28;19955;-54
2021/12/13 13:51:06;;;;;;;;;;;23.70;51.60;;;;;;5110815;28;20283;-55
2021/12/13 13:53:38;;;;;;;;;;;23.60;51.50;;;;;;5109341;27;19923;-55
2021/12/13 13:56:10;;;;;;;;;;;23.70;51.60;;;;;;5115811;28;19924;-52
2021/12/13 13:58:43;;;;;;;;;;;23.70;51.60;;;;;;5115491;28;19924;-52
2021/12/13 14:01:14;;;;;;;;;;;23.70;51.60;;;;;;5115677;28;19928;-52
2021/12/13 14:03:47;;;;;;;;;;;23.60;51.50;;;;;;5115612;28;19930;-54
2021/12/13 14:06:18;;;;;;;;;;;23.70;51.60;;;;;;5097751;28;19923;-52
2021/12/13 14:08:59;;;;;;;;;;;23.60;51.50;;;;;;5114267;28;19924;-54
2021/12/13 14:11:27;;;;;;;;;;;23.70;51.50;;;;;;5097180;28;19924;-53
2021/12/13 14:13:57;;;;;;;;;;;23.70;51.50;;;;;;5115270;28;20372;-55
2021/12/13 14:16:25;;;;;;;;;;;23.70;51.50;;;;;;5115388;28;20348;-50
2021/12/13 14:18:54;;;;;;;;;;;23.60;51.40;;;;;;5114973;28;20383;-52
2021/12/13 14:21:24;;;;;;;;;;;23.60;51.40;;;;;;5114918;28;19928;-47
2021/12/13 14:23:53;;;;;;;;;;;23.60;51.50;;;;;;5114095;27;20014;-51
2021/12/13 14:26:28;;;;;;;;;;;23.60;51.50;;;;;;5115161;28;19969;-50
2021/12/13 14:28:55;;;;;;;;;;;23.60;51.50;;;;;;5115449;28;19969;-54
2021/12/13 14:31:25;;;;;;;;;;;23.70;51.50;;;;;;5115104;28;20271;-46
2021/12/13 14:34:06;;;;;;;;;;;23.60;51.50;;;;;;5115047;28;19924;-55
2021/12/13 14:36:41;;;;;;;;;;;23.60;51.50;;;;;;5114718;28;20297;-48
2021/12/13 14:39:16;;;;;;;;;;;23.60;51.50;;;;;;5113960;27;20264;-55
2021/12/13 14:41:47;;;;;;;;;;;23.60;51.50;;;;;;5096622;28;19924;-51
2021/12/13 14:44:16;;;;;;;;;;;23.60;51.50;;;;;;5114980;28;20287;-52
2021/12/13 14:46:45;;;;;;;;;;;23.60;51.50;;;;;;5115067;28;19996;-54
2021/12/13 14:49:12;;;;;;;;;;;23.60;51.50;;;;;;5114389;28;20302;-46
2021/12/13 14:51:42;;;;;;;;;;;23.60;51.50;;;;;;5114477;28;19973;-49
2021/12/13 14:54:11;;;;;;;;;;;23.60;51.50;;;;;;5113111;28;19947;-46
2021/12/13 14:56:38;;;;;;;;;;;23.60;51.50;;;;;;5114717;28;20260;-53
2021/12/13 14:59:07;;;;;;;;;;;23.60;51.50;;;;;;5114593;28;19959;-51